createdAt,value
2024-01-21T00:00:35.731Z,1.39
2024-01-21T00:03:43.313Z,1.35
2024-01-21T00:06:30.111Z,1.36
2024-01-21T00:09:16.693Z,1.37
2024-01-21T00:12:03.400Z,1.36
2024-01-21T00:14:50.164Z,1.37
2024-01-21T00:17:37.067Z,1.38
2024-01-21T00:20:23.379Z,1.37
2024-01-21T00:23:10.028Z,1.36
2024-01-21T00:25:56.877Z,1.39
2024-01-21T00:28:43.385Z,1.42
2024-01-21T00:31:30.885Z,1.40
2024-01-21T00:34:17.419Z,1.38
2024-01-21T00:37:04.187Z,1.37
2024-01-21T00:39:50.893Z,1.39
2024-01-21T00:42:38.054Z,1.39
2024-01-21T00:45:24.648Z,1.42
2024-01-21T00:48:11.390Z,1.42
2024-01-21T00:50:57.767Z,1.44
2024-01-21T00:53:46.067Z,1.45
2024-01-21T00:56:32.454Z,1.48
2024-01-21T00:59:18.755Z,1.51
2024-01-21T01:02:05.302Z,1.49
2024-01-21T01:04:51.602Z,1.49
2024-01-21T01:07:38.452Z,1.49
2024-01-21T01:10:25.289Z,1.46
2024-01-21T01:13:11.793Z,1.51
2024-01-21T01:16:01.873Z,1.53
2024-01-21T01:18:48.395Z,1.51
2024-01-21T01:21:36.349Z,1.50
2024-01-21T01:24:22.886Z,1.52
2024-01-21T01:27:10.674Z,1.55
2024-01-21T01:29:57.130Z,1.56
2024-01-21T01:32:43.567Z,1.54
2024-01-21T01:35:30.352Z,1.52
2024-01-21T01:38:17.324Z,1.51
2024-01-21T01:41:04.041Z,1.49
2024-01-21T01:43:51.212Z,1.48
2024-01-21T01:46:38.167Z,1.48
2024-01-21T01:49:24.991Z,1.47
2024-01-21T01:52:14.311Z,1.44
2024-01-21T01:55:00.771Z,1.39
2024-01-21T01:57:48.277Z,1.41
2024-01-21T02:00:34.605Z,1.41
2024-01-21T02:03:26.090Z,1.41
2024-01-21T02:06:12.803Z,1.40
2024-01-21T02:08:59.588Z,1.38
2024-01-21T02:11:46.013Z,1.37
2024-01-21T02:14:32.644Z,1.38
2024-01-21T02:17:19.225Z,1.33
2024-01-21T02:20:08.537Z,1.33
2024-01-21T02:23:01.003Z,1.26
2024-01-21T02:25:47.705Z,1.29
2024-01-21T02:28:34.180Z,1.30
2024-01-21T02:31:20.745Z,1.32
2024-01-21T02:34:07.131Z,1.29
2024-01-21T02:36:54.054Z,1.27
2024-01-21T02:39:40.482Z,1.25
2024-01-21T02:42:27.487Z,1.23
2024-01-21T02:45:14.661Z,1.23
2024-01-21T02:48:01.968Z,1.22
2024-01-21T02:50:48.993Z,1.19
2024-01-21T02:53:35.570Z,1.16
2024-01-21T02:56:25.623Z,1.11
2024-01-21T02:59:12.005Z,1.08
2024-01-21T03:01:59.065Z,1.02
2024-01-21T03:04:45.593Z,1.02
2024-01-21T03:07:32.239Z,1.06
2024-01-21T03:10:18.816Z,1.03
2024-01-21T03:13:05.627Z,1.02
2024-01-21T03:15:52.664Z,1.01
2024-01-21T03:18:40.461Z,0.99
2024-01-21T03:21:27.516Z,0.99
2024-01-21T03:24:14.193Z,0.98
2024-01-21T03:27:00.704Z,0.97
2024-01-21T03:29:47.637Z,0.97
2024-01-21T03:32:33.979Z,0.99
2024-01-21T03:35:20.474Z,1.01
2024-01-21T03:38:07.763Z,0.97
2024-01-21T03:40:54.339Z,0.96
2024-01-21T03:43:40.833Z,0.93
2024-01-21T03:46:27.403Z,0.95
2024-01-21T03:49:13.797Z,0.90
2024-01-21T03:52:00.186Z,0.95
2024-01-21T03:54:46.885Z,0.97
2024-01-21T03:57:33.465Z,0.97
2024-01-21T04:00:20.343Z,0.98
2024-01-21T04:03:07.124Z,0.99
2024-01-21T04:05:53.631Z,0.99
2024-01-21T04:08:40.245Z,0.95
2024-01-21T04:11:27.168Z,0.91
2024-01-21T04:14:13.764Z,0.90
2024-01-21T04:17:00.232Z,0.88
2024-01-21T04:19:47.484Z,0.88
2024-01-21T04:22:34.599Z,0.87
2024-01-21T04:25:21.225Z,0.85
2024-01-21T04:28:07.599Z,0.82
2024-01-21T04:30:54.609Z,0.84
2024-01-21T04:33:41.411Z,0.84
2024-01-21T04:36:28.261Z,0.85
2024-01-21T04:39:18.633Z,0.81
2024-01-21T04:42:05.773Z,0.78
2024-01-21T04:44:52.476Z,0.75
2024-01-21T04:47:39.528Z,0.71
2024-01-21T04:50:26.274Z,0.76
2024-01-21T04:53:13.083Z,0.76
2024-01-21T04:55:59.991Z,0.72
2024-01-21T04:58:47.428Z,0.73
2024-01-21T05:01:35.045Z,0.72
2024-01-21T05:04:21.865Z,0.71
2024-01-21T05:07:08.295Z,0.67
2024-01-21T05:09:55.150Z,0.66
2024-01-21T05:12:41.800Z,0.65
2024-01-21T05:15:28.500Z,0.63
2024-01-21T05:18:14.744Z,0.59
2024-01-21T05:21:01.376Z,0.64
2024-01-21T05:23:52.396Z,0.65
2024-01-21T05:26:45.484Z,0.63
2024-01-21T05:29:34.792Z,0.61
2024-01-21T05:32:23.483Z,0.63
2024-01-21T05:35:12.160Z,0.64
2024-01-21T05:37:58.578Z,0.66
2024-01-21T05:40:45.548Z,0.67
2024-01-21T05:43:32.075Z,0.63
2024-01-21T05:46:18.642Z,0.65
2024-01-21T05:49:05.680Z,0.63
2024-01-21T05:51:52.589Z,0.62
2024-01-21T05:54:40.367Z,0.64
2024-01-21T05:57:27.308Z,0.66
2024-01-21T06:00:14.651Z,0.66
2024-01-21T06:03:01.523Z,0.64
2024-01-21T06:05:48.420Z,0.63
2024-01-21T06:08:35.769Z,0.66
2024-01-21T06:11:22.468Z,0.64
2024-01-21T06:14:09.559Z,0.63
2024-01-21T06:16:56.887Z,0.64
2024-01-21T06:19:43.521Z,0.65
2024-01-21T06:22:30.374Z,0.66
2024-01-21T06:25:18.427Z,0.64
2024-01-21T06:28:05.409Z,0.65
2024-01-21T06:30:52.043Z,0.59
2024-01-21T06:33:39.982Z,0.60
2024-01-21T06:36:26.917Z,0.61
2024-01-21T06:39:13.957Z,0.60
2024-01-21T06:42:02.723Z,0.59
2024-01-21T06:44:49.204Z,0.54
2024-01-21T06:47:36.141Z,0.55
2024-01-21T06:50:22.932Z,0.54
2024-01-21T06:53:09.598Z,0.52
2024-01-21T06:55:55.968Z,0.50
2024-01-21T06:58:42.470Z,0.47
2024-01-21T07:01:29.067Z,0.42
2024-01-21T07:04:16.656Z,0.37
2024-01-21T07:07:03.174Z,0.31
2024-01-21T07:09:49.955Z,0.23
2024-01-21T07:12:36.527Z,0.11
2024-01-21T07:15:24.277Z,0.08
2024-01-21T07:18:10.961Z,0.01
2024-01-21T07:20:57.996Z,-0.05
2024-01-21T07:23:45.036Z,-0.09
2024-01-21T07:26:31.720Z,-0.10
2024-01-21T07:29:18.442Z,-0.15
2024-01-21T07:32:05.223Z,-0.12
2024-01-21T07:34:51.990Z,-0.15
2024-01-21T07:37:38.661Z,-0.17
2024-01-21T07:40:25.021Z,-0.12
2024-01-21T07:43:11.910Z,-0.10
2024-01-21T07:45:58.425Z,0.07
2024-01-21T07:48:45.204Z,0.15
2024-01-21T07:51:32.210Z,0.22
2024-01-21T07:54:18.839Z,0.29
2024-01-21T07:57:06.461Z,0.48
2024-01-21T07:59:53.541Z,0.63
2024-01-21T08:02:40.154Z,0.76
2024-01-21T08:05:26.539Z,0.88
2024-01-21T08:08:13.484Z,1.00
2024-01-21T08:10:59.979Z,1.09
2024-01-21T08:13:46.634Z,1.18
2024-01-21T08:16:33.397Z,1.17
2024-01-21T08:19:21.853Z,1.24
2024-01-21T08:22:10.329Z,1.24
2024-01-21T08:24:57.494Z,1.18
2024-01-21T08:27:44.186Z,1.15
2024-01-21T08:30:30.889Z,0.97
2024-01-21T08:33:21.150Z,0.90
2024-01-21T08:36:09.249Z,0.79
2024-01-21T08:38:55.845Z,0.72
2024-01-21T08:41:42.507Z,0.68
2024-01-21T08:44:28.924Z,0.73
2024-01-21T08:47:15.715Z,0.70
2024-01-21T08:50:02.700Z,0.75
2024-01-21T08:52:49.517Z,0.82
2024-01-21T08:55:36.775Z,0.92
2024-01-21T08:58:23.451Z,1.01
2024-01-21T09:01:10.121Z,1.10
2024-01-21T09:03:57.066Z,1.18
2024-01-21T09:06:44.067Z,1.22
2024-01-21T09:09:36.283Z,1.19
2024-01-21T09:12:22.827Z,1.13
2024-01-21T09:15:10.278Z,1.15
2024-01-21T09:17:56.910Z,1.23
2024-01-21T09:20:43.589Z,1.42
2024-01-21T09:23:30.411Z,1.66
2024-01-21T09:26:17.225Z,1.81
2024-01-21T09:29:04.636Z,1.92
2024-01-21T09:31:58.293Z,2.02
2024-01-21T09:34:45.940Z,1.96
2024-01-21T09:37:33.049Z,1.88
2024-01-21T09:40:19.874Z,1.77
2024-01-21T09:43:07.863Z,1.69
2024-01-21T09:45:54.886Z,1.63
2024-01-21T09:48:41.929Z,1.60
2024-01-21T09:51:31.198Z,1.57
2024-01-21T09:54:18.764Z,1.57
2024-01-21T09:57:07.334Z,1.64
2024-01-21T09:59:54.023Z,1.77
2024-01-21T10:02:43.508Z,1.86
2024-01-21T10:05:30.061Z,1.86
2024-01-21T10:08:16.749Z,1.86
2024-01-21T10:11:05.975Z,1.84
2024-01-21T10:13:52.828Z,1.79
2024-01-21T10:16:44.126Z,1.74
2024-01-21T10:19:33.449Z,1.81
2024-01-21T10:22:22.787Z,1.87
2024-01-21T10:25:10.266Z,1.96
2024-01-21T10:27:57.096Z,2.11
2024-01-21T10:30:47.528Z,2.33
2024-01-21T10:33:34.085Z,2.57
2024-01-21T10:36:22.685Z,2.90
2024-01-21T10:39:15.657Z,3.19
2024-01-21T10:42:02.683Z,3.47
2024-01-21T10:44:51.141Z,3.53
2024-01-21T10:47:43.234Z,3.59
2024-01-21T10:50:29.578Z,3.54
2024-01-21T10:53:17.452Z,3.41
2024-01-21T10:56:04.949Z,3.26
2024-01-21T10:58:52.036Z,3.09
2024-01-21T11:01:41.541Z,2.95
2024-01-21T11:04:28.156Z,2.89
2024-01-21T11:07:18.052Z,2.87
2024-01-21T11:10:06.264Z,2.83
2024-01-21T11:12:58.160Z,2.87
2024-01-21T11:15:48.809Z,3.00
2024-01-21T11:18:35.652Z,3.08
2024-01-21T11:21:24.018Z,3.05
2024-01-21T11:24:14.640Z,3.08
2024-01-21T11:27:02.828Z,3.05
2024-01-21T11:29:54.006Z,3.08
2024-01-21T11:32:42.697Z,3.12
2024-01-21T11:35:30.593Z,3.10
2024-01-21T11:38:17.467Z,3.09
2024-01-21T11:41:05.682Z,3.07
2024-01-21T11:43:52.711Z,3.03
2024-01-21T11:46:40.570Z,2.96
2024-01-21T11:49:27.124Z,2.87
2024-01-21T11:52:16.131Z,2.77
2024-01-21T11:55:03.743Z,2.71
2024-01-21T11:57:50.677Z,2.67
2024-01-21T12:00:37.230Z,2.66
2024-01-21T12:03:24.053Z,2.66
2024-01-21T12:06:11.995Z,2.66
2024-01-21T12:09:01.931Z,2.69
2024-01-21T12:11:51.000Z,2.76
2024-01-21T12:14:38.152Z,2.81
2024-01-21T12:17:24.626Z,2.83
2024-01-21T12:20:12.313Z,2.80
2024-01-21T12:22:59.149Z,2.76
2024-01-21T12:25:47.070Z,2.71
2024-01-21T12:28:33.726Z,2.69
2024-01-21T12:31:22.086Z,2.70
2024-01-21T12:34:11.405Z,2.70
2024-01-21T12:36:57.990Z,2.71
2024-01-21T12:39:44.694Z,2.78
2024-01-21T12:42:31.148Z,2.82
2024-01-21T12:45:17.733Z,2.78
2024-01-21T12:48:05.628Z,2.80
2024-01-21T12:50:52.036Z,2.75
2024-01-21T12:53:39.278Z,2.69
2024-01-21T12:56:26.205Z,2.63
2024-01-21T12:59:15.083Z,2.58
2024-01-21T13:02:02.174Z,2.49
2024-01-21T13:04:48.744Z,2.35
2024-01-21T13:07:35.668Z,2.37
2024-01-21T13:10:22.718Z,2.35
2024-01-21T13:13:09.761Z,2.32
2024-01-21T13:15:57.032Z,2.29
2024-01-21T13:18:43.707Z,2.23
2024-01-21T13:21:31.474Z,2.28
2024-01-21T13:24:18.191Z,2.28
2024-01-21T13:27:10.754Z,2.26
2024-01-21T13:30:16.715Z,2.27
2024-01-21T13:33:03.074Z,2.25
2024-01-21T13:35:50.823Z,2.24
2024-01-21T13:38:37.869Z,2.23
2024-01-21T13:41:24.454Z,2.22
2024-01-21T13:44:11.033Z,2.18
2024-01-21T13:46:58.646Z,2.15
2024-01-21T13:49:45.422Z,2.07
2024-01-21T13:52:32.495Z,2.01
2024-01-21T13:55:19.263Z,1.95
2024-01-21T13:58:06.366Z,1.92
2024-01-21T14:00:53.493Z,1.89
2024-01-21T14:03:40.815Z,1.85
2024-01-21T14:06:27.663Z,1.82
2024-01-21T14:09:16.001Z,1.79
2024-01-21T14:12:02.529Z,1.78
2024-01-21T14:14:48.823Z,1.75
2024-01-21T14:17:35.644Z,1.72
2024-01-21T14:20:22.237Z,1.77
2024-01-21T14:23:08.993Z,1.76
2024-01-21T14:26:00.443Z,1.76
2024-01-21T14:28:47.690Z,1.76
2024-01-21T14:31:34.098Z,1.74
2024-01-21T14:34:20.570Z,1.75
2024-01-21T14:37:07.391Z,1.72
2024-01-21T14:39:54.153Z,1.72
2024-01-21T14:42:41.048Z,1.70
2024-01-21T14:45:28.537Z,1.66
2024-01-21T14:48:16.029Z,1.68
2024-01-21T14:51:02.703Z,1.66
2024-01-21T14:53:49.710Z,1.62
2024-01-21T14:56:36.480Z,1.65
2024-01-21T14:59:24.243Z,1.62
2024-01-21T15:02:10.997Z,1.59
2024-01-21T15:04:57.802Z,1.56
2024-01-21T15:07:48.617Z,1.54
2024-01-21T15:10:35.793Z,1.51
2024-01-21T15:13:26.532Z,1.43
2024-01-21T15:16:13.202Z,1.48
2024-01-21T15:19:00.434Z,1.49
2024-01-21T15:21:47.653Z,1.49
2024-01-21T15:24:34.825Z,1.50
2024-01-21T15:27:22.722Z,1.50
2024-01-21T15:30:09.967Z,1.50
2024-01-21T15:32:57.263Z,1.49
2024-01-21T15:35:43.810Z,1.49
2024-01-21T15:38:30.581Z,1.47
2024-01-21T15:41:17.201Z,1.47
2024-01-21T15:44:05.030Z,1.49
2024-01-21T15:46:51.438Z,1.49
2024-01-21T15:49:39.585Z,1.48
2024-01-21T15:52:26.869Z,1.46
2024-01-21T15:55:14.924Z,1.45
2024-01-21T15:58:01.894Z,1.45
2024-01-21T16:00:48.921Z,1.43
2024-01-21T16:03:35.953Z,1.45
2024-01-21T16:06:22.450Z,1.46
2024-01-21T16:09:09.512Z,1.42
2024-01-21T16:11:56.682Z,1.47
2024-01-21T16:14:47.224Z,1.48
2024-01-21T16:17:33.997Z,1.47
2024-01-21T16:20:22.555Z,1.48
2024-01-21T16:23:11.703Z,1.51
2024-01-21T16:25:58.294Z,1.54
2024-01-21T16:28:44.844Z,1.56
2024-01-21T16:31:32.764Z,1.57
2024-01-21T16:34:19.046Z,1.58
2024-01-21T16:37:05.953Z,1.58
2024-01-21T16:39:53.228Z,1.60
2024-01-21T16:42:40.155Z,1.57
2024-01-21T16:45:30.653Z,1.60
2024-01-21T16:48:17.433Z,1.59
2024-01-21T16:51:09.162Z,1.58
2024-01-21T16:53:55.985Z,1.56
2024-01-21T16:56:42.767Z,1.54
2024-01-21T16:59:30.445Z,1.52
2024-01-21T17:02:19.074Z,1.49
2024-01-21T17:05:06.470Z,1.45
2024-01-21T17:07:53.589Z,1.44
2024-01-21T17:10:46.780Z,1.38
2024-01-21T17:13:33.780Z,1.40
2024-01-21T17:16:20.263Z,1.41
2024-01-21T17:19:07.498Z,1.42
2024-01-21T17:21:55.079Z,1.42
2024-01-21T17:24:41.582Z,1.42
2024-01-21T17:27:27.811Z,1.44
2024-01-21T17:30:14.754Z,1.42
2024-01-21T17:33:02.012Z,1.37
2024-01-21T17:35:48.407Z,1.42
2024-01-21T17:38:34.806Z,1.44
2024-01-21T17:41:24.852Z,1.45
2024-01-21T17:44:12.276Z,1.43
2024-01-21T17:46:58.937Z,1.42
2024-01-21T17:49:45.492Z,1.38
2024-01-21T17:52:33.182Z,1.35
2024-01-21T17:55:20.294Z,1.30
2024-01-21T17:58:07.175Z,1.27
2024-01-21T18:00:54.480Z,1.23
2024-01-21T18:03:41.180Z,1.10
2024-01-21T18:06:29.473Z,1.17
2024-01-21T18:09:17.981Z,1.16
2024-01-21T18:12:08.757Z,1.17
2024-01-21T18:14:55.273Z,1.13
2024-01-21T18:17:42.156Z,1.16
2024-01-21T18:20:28.981Z,1.17
2024-01-21T18:23:15.814Z,1.18
2024-01-21T18:26:02.684Z,1.19
2024-01-21T18:28:59.005Z,1.19
2024-01-21T18:31:55.124Z,1.19
2024-01-21T18:34:42.271Z,1.15
2024-01-21T18:37:29.070Z,1.13
2024-01-21T18:40:15.869Z,1.11
2024-01-21T18:43:03.122Z,1.09
2024-01-21T18:45:49.708Z,1.09
2024-01-21T18:48:36.964Z,1.05
2024-01-21T18:51:23.879Z,0.99
2024-01-21T18:54:12.296Z,0.99
2024-01-21T18:56:58.821Z,0.95
2024-01-21T18:59:50.331Z,0.94
2024-01-21T19:02:37.593Z,0.94
2024-01-21T19:05:24.260Z,0.92
2024-01-21T19:08:10.584Z,0.86
2024-01-21T19:10:57.140Z,0.81
2024-01-21T19:13:44.822Z,0.77
2024-01-21T19:16:31.344Z,0.73
2024-01-21T19:19:18.267Z,0.67
2024-01-21T19:22:04.978Z,0.71
2024-01-21T19:24:51.298Z,0.74
2024-01-21T19:27:38.542Z,0.78
2024-01-21T19:30:24.985Z,0.79
2024-01-21T19:33:11.812Z,0.76
2024-01-21T19:35:58.568Z,0.75
2024-01-21T19:38:45.516Z,0.72
2024-01-21T19:41:32.873Z,0.70
2024-01-21T19:45:03.672Z,0.70
2024-01-21T19:47:50.625Z,0.67
2024-01-21T19:50:37.016Z,0.66
2024-01-21T19:53:24.313Z,0.67
2024-01-21T19:56:11.285Z,0.70
2024-01-21T19:58:57.793Z,0.75
2024-01-21T20:01:45.348Z,0.78
2024-01-21T20:04:31.872Z,0.81
2024-01-21T20:07:22.894Z,0.86
2024-01-21T20:10:10.229Z,0.87
2024-01-21T20:12:57.248Z,0.90
2024-01-21T20:15:44.618Z,0.89
2024-01-21T20:18:32.599Z,0.89
2024-01-21T20:21:19.730Z,0.89
2024-01-21T20:24:07.665Z,0.88
2024-01-21T20:26:55.600Z,0.86
2024-01-21T20:29:42.584Z,0.85
2024-01-21T20:32:29.593Z,0.79
2024-01-21T20:35:16.472Z,0.82
2024-01-21T20:38:03.227Z,0.80
2024-01-21T20:40:50.447Z,0.79
2024-01-21T20:43:38.971Z,0.78
2024-01-21T20:46:25.919Z,0.78
2024-01-21T20:49:12.864Z,0.77
2024-01-21T20:51:59.338Z,0.76
2024-01-21T20:54:47.920Z,0.76
2024-01-21T20:57:34.605Z,0.76
2024-01-21T21:00:22.316Z,0.74
2024-01-21T21:03:10.546Z,0.75
2024-01-21T21:05:57.794Z,0.73
2024-01-21T21:08:45.074Z,0.82
2024-01-21T21:11:32.156Z,0.84
2024-01-21T21:14:20.840Z,0.86
2024-01-21T21:17:08.990Z,0.86
2024-01-21T21:19:55.739Z,0.86
2024-01-21T21:22:42.954Z,0.86
2024-01-21T21:25:30.156Z,0.86
2024-01-21T21:28:16.527Z,0.84
2024-01-21T21:31:04.747Z,0.82
2024-01-21T21:33:51.651Z,0.76
2024-01-21T21:36:38.450Z,0.79
2024-01-21T21:39:25.492Z,0.74
2024-01-21T21:42:12.156Z,0.68
2024-01-21T21:44:58.625Z,0.73
2024-01-21T21:47:47.505Z,0.70
2024-01-21T21:50:35.559Z,0.69
2024-01-21T21:53:22.275Z,0.69
2024-01-21T21:56:09.070Z,0.67
2024-01-21T21:58:56.911Z,0.67
2024-01-21T22:01:44.468Z,0.67
2024-01-21T22:04:31.515Z,0.67
2024-01-21T22:07:18.682Z,0.68
2024-01-21T22:10:06.400Z,0.68
2024-01-21T22:12:52.933Z,0.63
2024-01-21T22:15:40.623Z,0.68
2024-01-21T22:18:28.821Z,0.71
2024-01-21T22:21:19.155Z,0.73
2024-01-21T22:24:06.288Z,0.75
2024-01-21T22:26:53.184Z,0.78
2024-01-21T22:29:39.918Z,0.80
2024-01-21T22:32:26.854Z,0.80
2024-01-21T22:35:13.499Z,0.79
2024-01-21T22:38:00.224Z,0.80
2024-01-21T22:40:46.782Z,0.81
2024-01-21T22:43:33.561Z,0.87
2024-01-21T22:46:20.246Z,0.89
2024-01-21T22:49:07.262Z,0.92
2024-01-21T22:51:55.255Z,0.96
2024-01-21T22:54:42.193Z,0.98
2024-01-21T22:57:28.867Z,0.98
2024-01-21T23:00:22.574Z,1.03
2024-01-21T23:03:09.183Z,1.05
2024-01-21T23:05:57.808Z,1.09
2024-01-21T23:08:44.323Z,1.12
2024-01-21T23:11:30.971Z,1.14
2024-01-21T23:14:17.684Z,1.16
2024-01-21T23:17:04.655Z,1.18
2024-01-21T23:19:51.326Z,1.20
2024-01-21T23:22:38.448Z,1.24
2024-01-21T23:25:25.383Z,1.22
2024-01-21T23:28:12.036Z,1.28
2024-01-21T23:31:01.296Z,1.29
2024-01-21T23:33:47.964Z,1.31
2024-01-21T23:36:34.749Z,1.33
2024-01-21T23:39:22.923Z,1.34
2024-01-21T23:42:09.661Z,1.36
2024-01-21T23:44:56.679Z,1.36
2024-01-21T23:47:43.577Z,1.35
2024-01-21T23:50:30.457Z,1.29
2024-01-21T23:53:18.863Z,1.29
2024-01-21T23:56:06.107Z,1.28
2024-01-21T23:58:52.808Z,1.23
